Terminal Aerodrome Forecast
Issued by NWS

Home | Current Version | Previous Version | Text Only | Print | Product List | Glossary On
Versions: 1 2 3 4 5 6 7 8 9 10 11 12 13 14 15 16 17 18 19 20 21 22 23 24 25 26 27
681
FTUS46 KSEW 231358 AAA
TAFSEA
TAF AMD
KSEA 231358Z 2314/2418 17003KT P6SM VCSH SCT011 SCT028 BKN070
      TEMPO 2314/2318 -SHSN BKN011 OVC028
     FM231800 VRB03KT P6SM SCT015 BKN030
     FM232000 30004KT P6SM SKC
     FM240300 VRB04KT P6SM SCT060
     FM240800 17005KT P6SM SCT030 BKN050=

USA.gov is the U.S. government's official web portal to all federal, state and local government web resources and services.